East Kingston, New Hampshire
Current Conditions -  °F | °C
As of 12:58 AM on Thursday 29 Jan 2015 (Local Time) from KPSM Reporting Station
Clear Clear  
Wind Chill: -7°   Ceiling: Unl
Heat Index:   Visibility: 10mi
Dew Point: -3°   Wind: 6mph
Humidity: 73%   Direction: 290°WNW
Pressure: 30.23"   Gusts: NA
Location:  42.93°N, 71.02°W
Report Text: KPSM 290558Z 29005KT 10SM CLR M15/M19 A3023 RMK AO2A SLP242 4/021 T11551193 11071 21155 52017
Loading
Personal Weather Stations






























Interactive Weather Map New forecast layout! Learn more

10-Day Weather Forecast

Advertisements
Track Severe Weather on mobile